^^
Saratoga-Weather Station Historical Data
Daily Summary for June 26, 2022 Units:  English    Metric   Both
Daily Weekly Monthly Yearly Custom
  High: Low: Average:
Temperature: 65.8 °F 58.6 °F 62.2 °F
Dew Point: 59.9 °F 56.8 °F 58.5 °F
Humidity: 96% 75% 88%
Wind Speed: 6mph 0mph 1.1mph
Wind Gust: 9mph - -
Wind- - WSW
Pressure: 30 in 29.9 in -
Precipitation: 0.07 in    
Historical Graphs
 
 
Tabular Data for June 26, 2022
Time Temperature Dew Point Pressure Wind Wind Speed Wind Gust Humidity Rainfall Rate (Hourly) solar
00:04 60.8 °F 58.5 °F 29.9 in Calm     92% 0 in 0 W/m2
00:09 60.8 °F 58.5 °F 29.9 in WSW 2 mph 3 mph 92% 0 in 0 W/m2
00:14 60.8 °F 58.8 °F 29.9 in WSW 2.9 mph 4 mph 93% 0 in 0 W/m2
00:19 60.8 °F 58.8 °F 29.9 in WSW 2 mph 3 mph 93% 0 in 0 W/m2
00:24 60.6 °F 58.6 °F 29.9 in WSW 2 mph 4 mph 93% 0 in 0 W/m2
00:29 60.6 °F 58.6 °F 29.9 in WNW 0.9 mph 3 mph 93% 0 in 0 W/m2
00:34 60.6 °F 58.6 °F 29.9 in WNW 2 mph 2 mph 93% 0 in 0 W/m2
00:39 60.6 °F 58.6 °F 29.9 in Calm   3 mph 93% 0 in 0 W/m2
00:44 60.6 °F 58.6 °F 29.9 in Calm     93% 0 in 0 W/m2
00:49 60.4 °F 58.5 °F 29.9 in Calm   1 mph 93% 0 in 0 W/m2
00:54 60.4 °F 58.5 °F 29.9 in WNW 0.9 mph 1 mph 93% 0 in 0 W/m2
00:59 60.4 °F 58.5 °F 29.9 in WNW 2 mph 2 mph 93% 0 in 0 W/m2
01:04 60.4 °F 58.5 °F 29.9 in Calm     93% 0 in 0 W/m2
01:09 60.4 °F 58.5 °F 29.9 in Calm     93% 0 in 0 W/m2
01:14 60.4 °F 58.5 °F 29.9 in Calm     93% 0 in 0 W/m2
01:19 60.4 °F 58.5 °F 29.9 in Calm     93% 0 in 0 W/m2
01:24 60.4 °F 58.5 °F 29.9 in Calm     93% 0 in 0 W/m2
01:29 60.4 °F 58.5 °F 29.9 in Calm     93% 0 in 0 W/m2
01:34 60.3 °F 58.3 °F 29.9 in Calm   1 mph 93% 0 in 0 W/m2
01:39 60.3 °F 58.3 °F 29.9 in WNW 0.9 mph 1 mph 93% 0 in 0 W/m2
01:44 60.3 °F 58.3 °F 29.9 in Calm     93% 0 in 0 W/m2
01:49 60.3 °F 58.3 °F 29.9 in WNW 0.9 mph 1 mph 93% 0 in 0 W/m2
01:54 60.3 °F 58.3 °F 29.9 in Calm   1 mph 93% 0 in 0 W/m2
01:59 60.3 °F 58.3 °F 29.9 in Calm     93% 0 in 0 W/m2
02:04 60.1 °F 58.3 °F 29.9 in Calm   1 mph 94% 0 in 0 W/m2
02:09 60.1 °F 58.3 °F 29.9 in Calm     94% 0 in 0 W/m2
02:14 60.1 °F 58.3 °F 29.9 in Calm   1 mph 94% 0 in 0 W/m2
02:19 60.1 °F 58.3 °F 29.9 in Calm     94% 0 in 0 W/m2
02:24 60.1 °F 58.3 °F 29.9 in Calm     94% 0 in 0 W/m2
02:29 60.1 °F 58.3 °F 29.9 in Calm     94% 0 in 0 W/m2
02:34 59.9 °F 58.1 °F 29.9 in Calm   1 mph 94% 0 in 0 W/m2
02:39 59.7 °F 57.9 °F 29.9 in Calm   1 mph 94% 0 in 0 W/m2
02:44 59.7 °F 57.9 °F 29.9 in Calm     94% 0 in 0 W/m2
02:49 59.5 °F 57.7 °F 29.9 in Calm     94% 0 in 0 W/m2
02:54 59.5 °F 57.7 °F 29.9 in Calm     94% 0 in 0 W/m2
02:59 59.4 °F 57.6 °F 29.9 in Calm     94% 0 in 0 W/m2
03:04 59.2 °F 57.4 °F 29.9 in Calm     94% 0 in 0 W/m2
03:09 59.2 °F 57.4 °F 29.9 in Calm     94% 0 in 0 W/m2
03:14 59 °F 57.2 °F 29.9 in North 0.9 mph 2 mph 94% 0 in 0 W/m2
03:19 59 °F 57.2 °F 29.9 in Calm     94% 0 in 0 W/m2
03:24 58.8 °F 57 °F 29.9 in Calm   2 mph 94% 0 in 0 W/m2
03:29 58.8 °F 57 °F 29.9 in Calm     94% 0 in 0 W/m2
03:34 58.8 °F 57 °F 29.9 in Calm   1 mph 94% 0 in 0 W/m2
03:39 58.6 °F 56.8 °F 29.9 in Calm   2 mph 94% 0 in 0 W/m2
03:44 58.6 °F 56.8 °F 29.9 in Calm     94% 0 in 0 W/m2
03:49 58.6 °F 56.8 °F 29.9 in Calm     94% 0 in 0 W/m2
03:54 58.6 °F 57.2 °F 29.9 in WSW 0.9 mph 2 mph 95% 0 in 0 W/m2
03:59 58.6 °F 57.2 °F 29.9 in Calm   1 mph 95% 0 in 0 W/m2
04:04 58.6 °F 57.2 °F 29.9 in Calm   1 mph 95% 0 in 0 W/m2
04:09 58.6 °F 57.2 °F 29.9 in West 0.9 mph 3 mph 95% 0 in 0 W/m2
04:14 58.8 °F 57.4 °F 29.9 in West 2 mph 3 mph 95% 0 in 0 W/m2
04:19 59.2 °F 57.7 °F 29.9 in West 0.9 mph 1 mph 95% 0 in 0 W/m2
04:24 59.2 °F 57.7 °F 29.9 in Calm   3 mph 95% 0 in 0 W/m2
04:29 59.2 °F 57.7 °F 29.9 in West 0.9 mph 2 mph 95% 0 in 0 W/m2
04:34 59.4 °F 57.9 °F 29.9 in Calm     95% 0 in 0 W/m2
04:39 59.4 °F 57.9 °F 29.9 in West 0.9 mph 2 mph 95% 0 in 0 W/m2
04:44 59.4 °F 57.9 °F 29.9 in Calm   1 mph 95% 0 in 0 W/m2
04:49 59.4 °F 57.9 °F 29.9 in Calm   1 mph 95% 0 in 0 W/m2
04:54 59.4 °F 57.9 °F 29.9 in Calm     95% 0 in 0 W/m2
04:59 59.4 °F 57.9 °F 29.9 in Calm   1 mph 95% 0 in 0 W/m2
05:04 59.4 °F 57.9 °F 29.9 in West 0.9 mph 2 mph 95% 0 in 0 W/m2
05:09 59.4 °F 57.9 °F 29.9 in West 0.9 mph 2 mph 95% 0 in 0 W/m2
05:14 59.4 °F 57.9 °F 29.9 in Calm     95% 0 in 0 W/m2
05:19 59.4 °F 57.9 °F 29.9 in Calm     95% 0 in 0 W/m2
05:24 59.4 °F 57.9 °F 29.9 in Calm     95% 0 in 0 W/m2
05:29 59.2 °F 57.7 °F 29.9 in Calm     95% 0 in 0 W/m2
05:34 59.2 °F 57.7 °F 29.9 in Calm     95% 0 in 0 W/m2
05:40 59.2 °F 57.7 °F 29.9 in Calm     95% 0 in 5 W/m2
05:45 59.2 °F 57.7 °F 29.9 in Calm     95% 0 in 5 W/m2
05:50 59.2 °F 57.7 °F 29.9 in Calm     95% 0 in 5 W/m2
05:55 59.2 °F 57.7 °F 29.9 in Calm     95% 0 in 7 W/m2
06:00 59.2 °F 57.7 °F 29.9 in Calm     95% 0 in 11 W/m2
06:05 59 °F 57.6 °F 29.9 in Calm     95% 0 in 14 W/m2
06:10 59 °F 57.6 °F 29.9 in Calm     95% 0 in 16 W/m2
06:15 59 °F 57.6 °F 29.9 in Calm     95% 0 in 14 W/m2
06:20 59.2 °F 57.7 °F 29.9 in Calm     95% 0 in 14 W/m2
06:25 59.2 °F 57.7 °F 29.9 in Calm     95% 0 in 16 W/m2
06:30 59.2 °F 58.1 °F 29.9 in Calm     96% 0 in 23 W/m2
06:35 59.4 °F 58.3 °F 29.9 in Calm     96% 0 in 18 W/m2
06:40 59.4 °F 57.9 °F 29.9 in Calm   1 mph 95% 0 in 16 W/m2
06:45 59.5 °F 58.1 °F 29.9 in Calm     95% 0 in 28 W/m2
06:50 59.5 °F 58.1 °F 29.9 in Calm   1 mph 95% 0 in 40 W/m2
06:55 59.5 °F 58.1 °F 29.9 in Calm     95% 0 in 44 W/m2
07:00 59.5 °F 58.1 °F 29.9 in Calm   1 mph 95% 0 in 32 W/m2
07:05 59.5 °F 58.1 °F 29.9 in Calm     95% 0 in 28 W/m2
07:10 59.7 °F 58.3 °F 29.9 in Calm     95% 0 in 32 W/m2
07:15 59.5 °F 58.1 °F 29.9 in Calm     95% 0 in 39 W/m2
07:20 59.7 °F 58.3 °F 29.9 in Calm     95% 0 in 83 W/m2
07:25 59.7 °F 58.3 °F 29.9 in Calm   1 mph 95% 0 in 79 W/m2
07:30 60.3 °F 58.8 °F 29.9 in WNW 0.9 mph 2 mph 95% 0 in 162 W/m2
07:35 60.6 °F 59.2 °F 29.9 in WNW 2 mph 3 mph 95% 0 in 206 W/m2
07:40 61 °F 59.2 °F 29.9 in WNW 2 mph 8 mph 94% 0 in 258 W/m2
07:45 61.3 °F 59.4 °F 29.9 in NW 2 mph 3 mph 93% 0 in 244 W/m2
07:50 61.9 °F 59.5 °F 29.9 in WSW 0.9 mph 7 mph 92% 0 in 306 W/m2
07:55 62.2 °F 59.5 °F 29.9 in West 0.9 mph 2 mph 91% 0 in 239 W/m2
08:00 62.6 °F 59.5 °F 30 in WSW 0.9 mph 5 mph 90% 0 in 128 W/m2
08:05 62.6 °F 59.4 °F 30 in WNW 4.9 mph 6 mph 89% 0 in 60 W/m2
08:10 62.4 °F 59.2 °F 30 in WSW 2 mph 4 mph 89% 0 in 95 W/m2
08:15 62.1 °F 58.8 °F 30 in West 2.9 mph 6 mph 89% 0 in 151 W/m2
08:20 62.1 °F 58.8 °F 30 in WNW 2 mph 3 mph 89% 0 in 188 W/m2
08:25 62.2 °F 59 °F 30 in West 2 mph 3 mph 89% 0 in 185 W/m2
08:30 62.4 °F 59.2 °F 30 in Calm   1 mph 89% 0 in 220 W/m2
08:35 63 °F 59.4 °F 30 in South 2 mph 4 mph 88% 0 in 223 W/m2
08:40 63.3 °F 59.4 °F 30 in SW 2.9 mph 4 mph 87% 0 in 255 W/m2
08:45 63.9 °F 59.9 °F 30 in WNW 0.9 mph 2 mph 87% 0 in 218 W/m2
08:50 63.9 °F 59.2 °F 30 in Calm   4 mph 85% 0 in 151 W/m2
08:55 63.9 °F 59.2 °F 30 in NW 2.9 mph 4 mph 85% 0 in 142 W/m2
09:00 63.9 °F 59.2 °F 30 in WSW 2 mph 2 mph 85% 0 in 169 W/m2
09:05 63.9 °F 59 °F 30 in West 0.9 mph 6 mph 84% 0 in 120 W/m2
09:10 63.7 °F 58.8 °F 30 in West 0.9 mph 2 mph 84% 0 in 130 W/m2
09:15 63.5 °F 58.6 °F 30 in Calm   5 mph 84% 0 in 120 W/m2
09:20 63.5 °F 58.8 °F 30 in WNW 2 mph 4 mph 85% 0 in 135 W/m2
09:25 63.5 °F 58.8 °F 30 in West 2 mph 3 mph 85% 0 in 144 W/m2
09:30 63.5 °F 58.8 °F 30 in West 0.9 mph 3 mph 85% 0 in 114 W/m2
09:35 63.3 °F 59 °F 30 in West 2 mph 4 mph 86% 0 in 102 W/m2
09:40 63.3 °F 59 °F 30 in West 2.9 mph 3 mph 86% 0 in 111 W/m2
09:45 63.1 °F 58.8 °F 30 in WNW 0.9 mph 6 mph 86% 0 in 107 W/m2
09:50 63 °F 59.4 °F 30 in West 2 mph 2 mph 88% 0.01 in 125 W/m2
09:55 62.8 °F 59.2 °F 30 in West 2 mph 5 mph 88% 0.01 in 172 W/m2
10:00 62.8 °F 59.2 °F 30 in West 2.9 mph 4 mph 88% 0.01 in 165 W/m2
10:05 62.6 °F 59 °F 30 in WNW 2 mph 5 mph 88% 0.01 in 128 W/m2
10:10 62.4 °F 59.2 °F 30 in NNW 2 mph 5 mph 89% 0.01 in 81 W/m2
10:15 62.4 °F 59.2 °F 30 in SSW 2.9 mph 3 mph 89% 0.01 in 90 W/m2
10:20 62.4 °F 59.2 °F 30 in Calm   2 mph 89% 0.01 in 114 W/m2
10:25 62.4 °F 59.2 °F 30 in West 0.9 mph 2 mph 89% 0.01 in 60 W/m2
10:30 62.2 °F 58.6 °F 30 in WNW 2 mph 7 mph 88% 0.01 in 65 W/m2
10:35 62.1 °F 58.5 °F 30 in NW 2 mph 4 mph 88% 0.01 in 84 W/m2
10:41 62.1 °F 58.5 °F 30 in WSW 2.9 mph 4 mph 88% 0.01 in 97 W/m2
10:46 61.9 °F 58.3 °F 30 in West 2.9 mph 4 mph 88% 0.01 in 93 W/m2
10:51 61.9 °F 58.3 °F 30 in West 2 mph 8 mph 88% 0 in 100 W/m2
10:56 61.7 °F 58.5 °F 30 in West 2 mph 3 mph 89% 0 in 95 W/m2
11:01 61.7 °F 58.1 °F 30 in NNW 2 mph 8 mph 88% 0 in 95 W/m2
11:06 61.9 °F 57.9 °F 30 in West 2 mph 3 mph 87% 0 in 114 W/m2
11:11 62.1 °F 58.1 °F 30 in West 0.9 mph 4 mph 87% 0 in 155 W/m2
11:16 62.1 °F 58.1 °F 30 in Calm   2 mph 87% 0 in 193 W/m2
11:21 62.2 °F 58.3 °F 30 in NW 2 mph 4 mph 87% 0 in 178 W/m2
11:26 62.4 °F 58.1 °F 30 in West 0.9 mph 3 mph 86% 0 in 153 W/m2
11:31 62.4 °F 57.9 °F 30 in Calm   1 mph 85% 0 in 148 W/m2
11:36 62.8 °F 58.3 °F 30 in Calm   2 mph 85% 0 in 127 W/m2
11:41 63 °F 58.1 °F 30 in NW 0.9 mph 2 mph 84% 0 in 86 W/m2
11:46 63.1 °F 57.9 °F 30 in NW 0.9 mph 2 mph 83% 0 in 88 W/m2
11:51 63.1 °F 58.3 °F 30 in Calm   2 mph 84% 0 in 63 W/m2
11:56 63.1 °F 58.3 °F 30 in Calm     84% 0 in 63 W/m2
12:01 63 °F 58.5 °F 30 in WSW 0.9 mph 2 mph 85% 0 in 91 W/m2
12:06 63 °F 58.1 °F 30 in West 0.9 mph 1 mph 84% 0 in 104 W/m2
12:11 63 °F 58.1 °F 30 in West 0.9 mph 2 mph 84% 0 in 134 W/m2
12:16 63 °F 58.1 °F 30 in West 0.9 mph 2 mph 84% 0 in 148 W/m2
12:21 63 °F 57.7 °F 30 in Calm   1 mph 83% 0 in 149 W/m2
12:26 63.1 °F 57.6 °F 30 in WNW 2.9 mph 4 mph 82% 0.01 in 139 W/m2
12:31 63.1 °F 57.6 °F 30 in WNW 2 mph 2 mph 82% 0.01 in 121 W/m2
12:36 63.1 °F 57.9 °F 30 in Calm   2 mph 83% 0.01 in 102 W/m2
12:41 63.1 °F 57.6 °F 30 in NE 0.9 mph 1 mph 82% 0.01 in 109 W/m2
12:46 63.1 °F 56.8 °F 30 in Calm   1 mph 80% 0.01 in 130 W/m2
12:51 63.1 °F 58.3 °F 30 in Calm   1 mph 84% 0.01 in 134 W/m2
12:56 63 °F 58.6 °F 30 in Calm     86% 0.02 in 139 W/m2
13:01 62.8 °F 58.8 °F 30 in Calm     87% 0.02 in 146 W/m2
13:06 62.8 °F 58.8 °F 30 in Calm   1 mph 87% 0.02 in 158 W/m2
13:11 62.6 °F 58.6 °F 30 in North 0.9 mph 1 mph 87% 0.02 in 134 W/m2
13:16 62.6 °F 58.6 °F 30 in Calm   1 mph 87% 0.02 in 113 W/m2
13:21 62.8 °F 58.5 °F 30 in Calm     86% 0.02 in 135 W/m2
13:26 62.8 °F 58.8 °F 30 in WNW 0.9 mph 1 mph 87% 0.02 in 200 W/m2
13:31 63 °F 59.4 °F 30 in NW 0.9 mph 2 mph 88% 0.02 in 239 W/m2
13:36 63.1 °F 59.2 °F 30 in Calm   1 mph 87% 0.02 in 343 W/m2
13:41 63.7 °F 59.4 °F 30 in East 0.9 mph 4 mph 86% 0.02 in 339 W/m2
13:46 63.9 °F 59.2 °F 30 in ENE 2.9 mph 3 mph 85% 0.02 in 529 W/m2
13:51 64.2 °F 59.5 °F 30 in ENE 2.9 mph 8 mph 85% 0.02 in 345 W/m2
13:56 64.4 °F 59.5 °F 30 in ENE 0.9 mph 2 mph 84% 0.01 in 313 W/m2
14:01 64.4 °F 59.2 °F 30 in NE 2 mph 8 mph 83% 0.01 in 251 W/m2
14:06 64.4 °F 59.2 °F 30 in ESE 2.9 mph 9 mph 83% 0.01 in 172 W/m2
14:11 64.4 °F 59.2 °F 30 in Calm   6 mph 83% 0.01 in 206 W/m2
14:16 64.4 °F 58.8 °F 30 in South 2 mph 6 mph 82% 0 in 227 W/m2
14:21 64.8 °F 59.2 °F 30 in NE 2 mph 7 mph 82% 0 in 367 W/m2
14:26 64.9 °F 58.3 °F 30 in East 2.9 mph 6 mph 79% 0 in 468 W/m2
14:31 65.7 °F 59.7 °F 30 in ENE 2 mph 4 mph 81% 0 in 297 W/m2
14:36 65.8 °F 59.5 °F 30 in NE 2 mph 4 mph 80% 0 in 276 W/m2
14:41 65.7 °F 59.7 °F 30 in SE 2 mph 5 mph 81% 0 in 204 W/m2
14:46 65.7 °F 59.7 °F 30 in ESE 2 mph 4 mph 81% 0 in 202 W/m2
14:51 65.7 °F 59.4 °F 30 in ENE 0.9 mph 2 mph 80% 0 in 223 W/m2
14:56 65.7 °F 59.4 °F 30 in SE 2 mph 3 mph 80% 0 in 174 W/m2
15:01 65.7 °F 58.6 °F 30 in ENE 2 mph 5 mph 78% 0 in 176 W/m2
15:06 65.5 °F 57.4 °F 30 in NE 2.9 mph 4 mph 75% 0 in 135 W/m2
15:11 65.7 °F 57.9 °F 30 in East 0.9 mph 2 mph 76% 0 in 134 W/m2
15:16 65.7 °F 57.9 °F 30 in ENE 0.9 mph 3 mph 76% 0 in 120 W/m2
15:21 65.7 °F 58.3 °F 30 in Calm   2 mph 77% 0 in 139 W/m2
15:26 65.7 °F 58.3 °F 30 in Calm   3 mph 77% 0 in 176 W/m2
15:31 65.7 °F 57.9 °F 30 in NNE 0.9 mph 1 mph 76% 0 in 190 W/m2
15:36 65.8 °F 58.8 °F 30 in NNW 2.9 mph 4 mph 78% 0 in 193 W/m2
15:41 65.8 °F 58.1 °F 30 in West 2 mph 3 mph 76% 0 in 163 W/m2
15:46 65.7 °F 57.9 °F 30 in WSW 2 mph 3 mph 76% 0 in 142 W/m2
15:51 65.5 °F 58.1 °F 30 in Calm   2 mph 77% 0 in 132 W/m2
15:56 65.5 °F 58.1 °F 30 in Calm   4 mph 77% 0 in 128 W/m2
16:01 65.7 °F 58.3 °F 30 in WNW 2.9 mph 5 mph 77% 0 in 134 W/m2
16:06 65.5 °F 58.5 °F 30 in West 2 mph 4 mph 78% 0 in 146 W/m2
16:11 65.3 °F 59 °F 30 in NW 2 mph 4 mph 80% 0 in 141 W/m2
16:16 65.3 °F 59 °F 30 in West 2 mph 4 mph 80% 0 in 153 W/m2
16:21 65.3 °F 58.6 °F 30 in WNW 2 mph 6 mph 79% 0 in 104 W/m2
16:26 65.1 °F 58.5 °F 30 in NW 2.9 mph 4 mph 79% 0 in 95 W/m2
16:31 65.1 °F 58.5 °F 30 in WNW 2.9 mph 7 mph 79% 0 in 70 W/m2
16:36 64.9 °F 58.3 °F 30 in NW 2 mph 3 mph 79% 0 in 54 W/m2
16:41 64.9 °F 58.3 °F 30 in West 2 mph 7 mph 79% 0 in 60 W/m2
16:46 64.9 °F 58.3 °F 30 in WNW 2.9 mph 6 mph 79% 0 in 88 W/m2
16:51 64.9 °F 58.3 °F 30 in NW 0.9 mph 3 mph 79% 0 in 107 W/m2
16:56 64.9 °F 58.3 °F 30 in West 2.9 mph 5 mph 79% 0 in 125 W/m2
17:01 64.9 °F 57.9 °F 30 in West 0.9 mph 6 mph 78% 0 in 130 W/m2
17:06 65.1 °F 58.5 °F 30 in Calm   4 mph 79% 0 in 167 W/m2
17:11 65.1 °F 58.5 °F 30 in SW 2.9 mph 5 mph 79% 0 in 200 W/m2
17:16 65.3 °F 57.6 °F 29.9 in Calm   4 mph 76% 0 in 264 W/m2
17:21 65.7 °F 58.3 °F 29.9 in ESE 0.9 mph 3 mph 77% 0 in 200 W/m2
17:26 65.8 °F 58.5 °F 29.9 in NNW 2.9 mph 3 mph 77% 0 in 151 W/m2
17:31 65.8 °F 58.5 °F 29.9 in NNE 0.9 mph 3 mph 77% 0 in 104 W/m2
17:36 65.8 °F 58.1 °F 29.9 in NE 2 mph 6 mph 76% 0 in 104 W/m2
17:41 65.8 °F 58.5 °F 29.9 in SSW 0.9 mph 1 mph 77% 0 in 93 W/m2
17:46 65.8 °F 58.5 °F 29.9 in ENE 0.9 mph 6 mph 77% 0 in 93 W/m2
17:51 65.7 °F 58.3 °F 29.9 in Calm   2 mph 77% 0 in 84 W/m2
17:56 65.7 °F 57.9 °F 29.9 in ENE 2 mph 5 mph 76% 0 in 69 W/m2
18:01 65.5 °F 58.1 °F 29.9 in Calm   3 mph 77% 0 in 58 W/m2
18:06 65.5 °F 58.1 °F 29.9 in ENE 0.9 mph 4 mph 77% 0 in 69 W/m2
18:11 65.5 °F 58.1 °F 29.9 in North 2 mph 3 mph 77% 0 in 81 W/m2
18:16 65.3 °F 57.9 °F 29.9 in NNW 0.9 mph 2 mph 77% 0 in 84 W/m2
18:21 65.3 °F 57.9 °F 29.9 in Calm   3 mph 77% 0 in 70 W/m2
18:26 65.5 °F 58.1 °F 29.9 in Calm   2 mph 77% 0 in 104 W/m2
18:31 65.5 °F 58.5 °F 29.9 in Calm   2 mph 78% 0 in 105 W/m2
18:36 65.7 °F 58.6 °F 29.9 in NNW 2.9 mph 3 mph 78% 0 in 88 W/m2
18:41 65.7 °F 58.3 °F 29.9 in North 0.9 mph 1 mph 77% 0 in 90 W/m2
18:46 65.7 °F 58.3 °F 29.9 in Calm   1 mph 77% 0 in 84 W/m2
18:51 65.8 °F 58.5 °F 29.9 in North 0.9 mph 2 mph 77% 0 in 62 W/m2
18:56 65.8 °F 58.5 °F 29.9 in NE 2 mph 2 mph 77% 0 in 72 W/m2
19:01 65.8 °F 58.8 °F 29.9 in WNW 2 mph 4 mph 78% 0 in 62 W/m2
19:06 65.8 °F 58.8 °F 29.9 in Calm   2 mph 78% 0 in 77 W/m2
19:11 65.7 °F 58.6 °F 29.9 in West 2 mph 6 mph 78% 0 in 81 W/m2
19:16 65.7 °F 59.4 °F 29.9 in NW 4.9 mph 5 mph 80% 0 in 105 W/m2
19:21 65.5 °F 59.2 °F 29.9 in WSW 2 mph 6 mph 80% 0 in 86 W/m2
19:26 65.5 °F 59.2 °F 29.9 in West 6 mph 6 mph 80% 0 in 67 W/m2
19:32 65.1 °F 59.2 °F 29.9 in West 2.9 mph 6 mph 81% 0 in 65 W/m2
19:37 64.9 °F 59.4 °F 29.9 in WNW 2.9 mph 4 mph 82% 0 in 67 W/m2
19:42 64.8 °F 59.2 °F 29.9 in WSW 4 mph 6 mph 82% 0 in 69 W/m2
19:47 64.4 °F 59.2 °F 29.9 in WSW 2.9 mph 4 mph 83% 0 in 60 W/m2
19:52 64 °F 59.2 °F 29.9 in WNW 4 mph 6 mph 84% 0 in 58 W/m2
19:57 64 °F 59.2 °F 29.9 in WSW 2.9 mph 7 mph 84% 0 in 46 W/m2
20:02 64 °F 59.4 °F 29.9 in WNW 0.9 mph 4 mph 85% 0 in 39 W/m2
20:07 64 °F 59.2 °F 29.9 in WNW 4 mph 5 mph 84% 0 in 21 W/m2
20:12 64 °F 58.8 °F 29.9 in WNW 4 mph 4 mph 83% 0 in 23 W/m2
20:17 64 °F 58.8 °F 29.9 in West 2 mph 4 mph 83% 0 in 26 W/m2
20:22 63.9 °F 58.6 °F 29.9 in WSW 2 mph 3 mph 83% 0 in 26 W/m2
20:27 63.9 °F 58.6 °F 29.9 in Calm   1 mph 83% 0 in 21 W/m2
20:32 63.9 °F 59 °F 29.9 in WSW 0.9 mph 3 mph 84% 0 in 12 W/m2
20:37 63.7 °F 58.8 °F 29.9 in West 2.9 mph 3 mph 84% 0 in 11 W/m2
20:42 63.5 °F 58.6 °F 29.9 in West 2.9 mph 4 mph 84% 0 in 7 W/m2
20:47 63.3 °F 58.8 °F 29.9 in WNW 0.9 mph 3 mph 85% 0 in 5 W/m2
20:52 63 °F 58.6 °F 29.9 in WSW 0.9 mph 4 mph 86% 0 in 5 W/m2
20:57 62.8 °F 58.8 °F 29.9 in WSW 2 mph 4 mph 87% 0 in 0 W/m2
21:02 62.4 °F 58.5 °F 29.9 in West 2 mph 3 mph 87% 0.01 in 0 W/m2
21:07 62.1 °F 58.5 °F 29.9 in West 2.9 mph 4 mph 88% 0.01 in 0 W/m2
21:12 61.9 °F 58.6 °F 29.9 in West 2 mph 3 mph 89% 0.02 in 0 W/m2
21:17 61.5 °F 58.6 °F 29.9 in WNW 2 mph 3 mph 90% 0.02 in 0 W/m2
21:22 61.3 °F 58.5 °F 29.9 in WNW 4 mph 4 mph 90% 0.03 in 0 W/m2
21:27 61.3 °F 58.5 °F 29.9 in West 2.9 mph 5 mph 90% 0.03 in 0 W/m2
21:32 61.3 °F 58.6 °F 29.9 in WNW 2.9 mph 4 mph 91% 0.03 in 0 W/m2
21:37 61.2 °F 58.5 °F 29.9 in SW 0.9 mph 3 mph 91% 0.03 in 0 W/m2
21:42 61.2 °F 58.5 °F 29.9 in WNW 0.9 mph 2 mph 91% 0.03 in 0 W/m2
21:47 61 °F 58.6 °F 29.9 in West 4 mph 6 mph 92% 0.03 in 0 W/m2
21:52 60.8 °F 58.1 °F 29.9 in WSW 2 mph 3 mph 91% 0.03 in 0 W/m2
21:57 60.8 °F 58.5 °F 29.9 in WSW 2 mph 5 mph 92% 0.03 in 0 W/m2
22:02 60.6 °F 58.3 °F 29.9 in SSW 0.9 mph 2 mph 92% 0.02 in 0 W/m2
22:07 60.6 °F 58.3 °F 29.9 in Calm   4 mph 92% 0.02 in 0 W/m2
22:12 60.6 °F 58.3 °F 29.9 in SSW 0.9 mph 2 mph 92% 0.02 in 0 W/m2
22:17 60.6 °F 58.3 °F 29.9 in SSW 2 mph 2 mph 92% 0.02 in 0 W/m2
22:22 60.6 °F 58.6 °F 29.9 in Calm   1 mph 93% 0.01 in 0 W/m2
22:27 60.6 °F 58.6 °F 29.9 in Calm   1 mph 93% 0.01 in 0 W/m2
22:32 60.4 °F 58.5 °F 29.9 in Calm   1 mph 93% 0.01 in 0 W/m2
22:37 60.4 °F 58.5 °F 29.9 in Calm   2 mph 93% 0.01 in 0 W/m2
22:42 60.4 °F 58.5 °F 29.9 in Calm   2 mph 93% 0.01 in 0 W/m2
22:47 60.3 °F 58.3 °F 29.9 in Calm     93% 0.01 in 0 W/m2
22:52 60.3 °F 58.5 °F 29.9 in SW 2 mph 2 mph 94% 0.01 in 0 W/m2
22:57 60.3 °F 58.5 °F 29.9 in Calm   1 mph 94% 0.01 in 0 W/m2
23:02 60.3 °F 58.5 °F 29.9 in West 0.9 mph 1 mph 94% 0.01 in 0 W/m2
23:07 60.1 °F 58.3 °F 29.9 in SSW 2 mph 3 mph 94% 0.01 in 0 W/m2
23:12 60.1 °F 58.3 °F 29.9 in SSE 0.9 mph 2 mph 94% 0 in 0 W/m2
23:17 60.1 °F 58.3 °F 29.9 in Calm   3 mph 94% 0 in 0 W/m2
23:22 60.1 °F 58.3 °F 29.9 in SSE 0.9 mph 1 mph 94% 0 in 0 W/m2
23:27 59.9 °F 58.1 °F 29.9 in Calm   2 mph 94% 0 in 0 W/m2
23:32 59.9 °F 58.1 °F 29.9 in West 2 mph 3 mph 94% 0 in 0 W/m2
23:37 59.9 °F 58.1 °F 29.9 in WSW 2.9 mph 3 mph 94% 0 in 0 W/m2
23:42 59.9 °F 58.1 °F 29.9 in West 0.9 mph 3 mph 94% 0 in 0 W/m2
23:47 60.1 °F 58.3 °F 29.9 in SW 0.9 mph 2 mph 94% 0 in 0 W/m2
23:52 60.1 °F 58.3 °F 29.9 in Calm   1 mph 94% 0 in 0 W/m2
23:57 60.1 °F 58.3 °F 29.9 in Calm   2 mph 94% 0 in 0 W/m2
Juneau County Weather
Compliments of Weather Underground - 4 mb